Time,TemperatureF,DewpointF,PressureIn,WindDirection,WindDirectionDegrees,WindSpeedMPH,WindSpeedGustMPH,Humidity,HourlyPrecipIn,Conditions,Clouds,dailyrainin,SolarRadiationWatts/m^2,SoftwareType,DateUTC
2013-03-04 00:01:00,19.0,14.0,-100.00,West,277,5.0,10.0,81,0.00,,,0.00,0.000000,,2013-03-04 05:01:00,
2013-03-04 00:32:00,18.0,13.0,-100.00,West,279,5.0,9.0,82,0.00,,,0.00,0.000000,,2013-03-04 05:32:00,
2013-03-04 00:43:00,18.0,13.0,-100.00,West,279,5.0,9.0,82,0.00,,,0.00,0.000000,,2013-03-04 05:43:00,
2013-03-04 00:52:00,18.0,13.0,-100.00,West,279,5.0,9.0,82,0.00,,,0.00,0.000000,,2013-03-04 05:52:00,
2013-03-04 01:02:00,18.0,13.0,-100.00,West,279,5.0,9.0,82,0.00,,,0.00,0.000000,,2013-03-04 06:02:00,
2013-03-04 01:32:00,19.0,13.0,-100.00,WNW,303,7.0,13.0,78,0.00,,,0.00,0.000000,,2013-03-04 06:32:00,
2013-03-04 01:42:00,19.0,13.0,-100.00,WNW,303,7.0,13.0,78,0.00,,,0.00,0.000000,,2013-03-04 06:42:00,
2013-03-04 01:52:00,19.0,13.0,-100.00,WNW,303,7.0,13.0,78,0.00,,,0.00,0.000000,,2013-03-04 06:52:00,
2013-03-04 02:02:00,19.0,13.0,-100.00,WNW,303,7.0,13.0,78,0.00,,,0.00,0.000000,,2013-03-04 07:02:00,
2013-03-04 02:32:00,18.0,13.0,-100.00,WNW,289,8.0,16.0,79,0.00,,,0.00,0.000000,,2013-03-04 07:32:00,
2013-03-04 02:42:00,18.0,13.0,-100.00,WNW,289,8.0,16.0,79,0.00,,,0.00,0.000000,,2013-03-04 07:42:00,
2013-03-04 02:52:00,18.0,13.0,-100.00,WNW,289,8.0,16.0,79,0.00,,,0.00,0.000000,,2013-03-04 07:52:00,
2013-03-04 03:02:00,18.0,13.0,-100.00,WNW,289,8.0,16.0,79,0.00,,,0.00,0.000000,,2013-03-04 08:02:00,
2013-03-04 03:32:00,18.0,13.0,-100.00,WNW,290,5.0,10.0,81,0.00,,,0.00,0.000000,,2013-03-04 08:32:00,
2013-03-04 03:42:00,18.0,13.0,-100.00,WNW,290,5.0,10.0,81,0.00,,,0.00,0.000000,,2013-03-04 08:42:00,
2013-03-04 03:52:00,18.0,13.0,-100.00,WNW,290,5.0,10.0,81,0.00,,,0.00,0.000000,,2013-03-04 08:52:00,
2013-03-04 04:02:00,18.0,13.0,-100.00,WNW,290,5.0,10.0,81,0.00,,,0.00,0.000000,,2013-03-04 09:02:00,
2013-03-04 04:32:00,18.0,14.0,-100.00,WNW,285,5.0,9.0,84,0.00,,,0.00,0.000000,,2013-03-04 09:32:00,
2013-03-04 04:42:00,18.0,14.0,-100.00,WNW,285,5.0,9.0,84,0.00,,,0.00,0.000000,,2013-03-04 09:42:00,
2013-03-04 04:52:00,18.0,14.0,-100.00,WNW,285,5.0,9.0,84,0.00,,,0.00,0.000000,,2013-03-04 09:52:00,
2013-03-04 05:01:00,18.0,14.0,-100.00,WNW,285,5.0,9.0,84,0.00,,,0.00,0.000000,,2013-03-04 10:01:00,
2013-03-04 05:32:00,18.0,15.0,-100.00,WNW,286,6.0,11.0,87,0.00,,,0.00,0.000000,,2013-03-04 10:32:00,
2013-03-04 05:42:00,18.0,15.0,-100.00,WNW,286,6.0,11.0,87,0.00,,,0.00,0.000000,,2013-03-04 10:42:00,
2013-03-04 05:52:00,18.0,15.0,-100.00,WNW,286,6.0,11.0,87,0.00,,,0.00,0.000000,,2013-03-04 10:52:00,
2013-03-04 06:02:00,18.0,15.0,-100.00,WNW,286,6.0,11.0,87,0.00,,,0.00,0.000000,,2013-03-04 11:02:00,
2013-03-04 06:32:00,18.0,15.0,-100.00,WNW,288,4.0,7.0,88,0.00,,,0.00,0.000000,,2013-03-04 11:32:00,
2013-03-04 06:42:00,18.0,15.0,-100.00,WNW,288,4.0,7.0,88,0.00,,,0.00,0.000000,,2013-03-04 11:42:00,
2013-03-04 06:52:00,18.0,15.0,-100.00,WNW,288,4.0,7.0,88,0.00,,,0.00,0.000000,,2013-03-04 11:52:00,
2013-03-04 07:02:00,18.0,15.0,-100.00,WNW,288,4.0,7.0,88,0.00,,,0.00,0.000000,,2013-03-04 12:02:00,
2013-03-04 07:32:00,19.0,16.0,-100.00,WNW,288,4.0,8.0,88,0.00,,,0.00,1.000000,,2013-03-04 12:32:00,
2013-03-04 07:43:00,19.0,16.0,-100.00,WNW,288,4.0,8.0,88,0.00,,,0.00,1.000000,,2013-03-04 12:43:00,
2013-03-04 07:53:00,19.0,16.0,-100.00,WNW,288,4.0,8.0,88,0.00,,,0.00,1.000000,,2013-03-04 12:53:00,
2013-03-04 08:02:00,19.0,16.0,-100.00,WNW,288,4.0,8.0,88,0.00,,,0.00,1.000000,,2013-03-04 13:02:00,
2013-03-04 08:32:00,19.0,16.0,-100.00,WNW,300,6.0,16.0,87,0.00,,,0.00,24.000000,,2013-03-04 13:32:00,
2013-03-04 08:42:00,19.0,16.0,-100.00,WNW,300,6.0,16.0,87,0.00,,,0.00,24.000000,,2013-03-04 13:42:00,
2013-03-04 08:52:00,19.0,16.0,-100.00,WNW,300,6.0,16.0,87,0.00,,,0.00,24.000000,,2013-03-04 13:52:00,
2013-03-04 09:01:00,19.0,16.0,-100.00,WNW,300,6.0,16.0,87,0.00,,,0.00,24.000000,,2013-03-04 14:01:00,
2013-03-04 09:32:00,20.0,16.0,-100.00,WNW,284,5.0,8.0,85,0.00,,,0.00,64.000000,,2013-03-04 14:32:00,
2013-03-04 09:42:00,20.0,16.0,-100.00,WNW,284,5.0,8.0,85,0.00,,,0.00,64.000000,,2013-03-04 14:42:00,
2013-03-04 09:52:00,20.0,16.0,-100.00,WNW,284,5.0,8.0,85,0.00,,,0.00,64.000000,,2013-03-04 14:52:00,
2013-03-04 10:02:00,20.0,16.0,-100.00,WNW,284,5.0,8.0,85,0.00,,,0.00,64.000000,,2013-03-04 15:02:00,
2013-03-04 10:32:00,20.0,16.0,-100.00,West,274,6.0,12.0,84,0.00,,,0.00,117.000000,,2013-03-04 15:32:00,
2013-03-04 10:42:00,20.0,16.0,-100.00,West,274,6.0,12.0,84,0.00,,,0.00,117.000000,,2013-03-04 15:42:00,
2013-03-04 10:52:00,20.0,16.0,-100.00,West,274,6.0,12.0,84,0.00,,,0.00,117.000000,,2013-03-04 15:52:00,
2013-03-04 11:03:00,20.0,16.0,-100.00,West,274,6.0,12.0,84,0.00,,,0.00,117.000000,,2013-03-04 16:03:00,
2013-03-04 11:32:00,21.0,16.0,-100.00,WNW,285,7.0,12.0,80,0.00,,,0.00,134.000000,,2013-03-04 16:32:00,
2013-03-04 11:42:00,21.0,16.0,-100.00,WNW,285,7.0,12.0,80,0.00,,,0.00,134.000000,,2013-03-04 16:42:00,
2013-03-04 11:52:00,21.0,16.0,-100.00,WNW,285,7.0,12.0,80,0.00,,,0.00,134.000000,,2013-03-04 16:52:00,
2013-03-04 12:02:00,21.0,16.0,-100.00,WNW,285,7.0,12.0,80,0.00,,,0.00,134.000000,,2013-03-04 17:02:00,
2013-03-04 12:32:00,23.0,17.0,-100.00,WNW,285,6.0,11.0,76,0.00,,,0.00,201.000000,,2013-03-04 17:32:00,
2013-03-04 12:42:00,23.0,17.0,-100.00,WNW,285,6.0,11.0,76,0.00,,,0.00,201.000000,,2013-03-04 17:42:00,
2013-03-04 12:52:00,23.0,17.0,-100.00,WNW,285,6.0,11.0,76,0.00,,,0.00,201.000000,,2013-03-04 17:52:00,
2013-03-04 13:02:00,23.0,17.0,-100.00,WNW,285,6.0,11.0,76,0.00,,,0.00,201.000000,,2013-03-04 18:02:00,
2013-03-04 13:32:00,23.0,16.0,-100.00,West,280,8.0,13.0,74,0.00,,,0.00,225.000000,,2013-03-04 18:32:00,
2013-03-04 13:42:00,23.0,16.0,-100.00,West,280,8.0,13.0,74,0.00,,,0.00,225.000000,,2013-03-04 18:42:00,
2013-03-04 13:52:00,23.0,16.0,-100.00,West,280,8.0,13.0,74,0.00,,,0.00,225.000000,,2013-03-04 18:52:00,
2013-03-04 14:02:00,23.0,16.0,-100.00,West,280,8.0,13.0,74,0.00,,,0.00,225.000000,,2013-03-04 19:02:00,
2013-03-04 14:32:00,24.0,16.0,-100.00,WNW,283,6.0,10.0,72,0.00,,,0.00,186.000000,,2013-03-04 19:32:00,
2013-03-04 14:42:00,24.0,16.0,-100.00,WNW,283,6.0,10.0,72,0.00,,,0.00,186.000000,,2013-03-04 19:42:00,
2013-03-04 14:52:00,24.0,16.0,-100.00,WNW,283,6.0,10.0,72,0.00,,,0.00,186.000000,,2013-03-04 19:52:00,
2013-03-04 15:02:00,24.0,16.0,-100.00,WNW,283,6.0,10.0,72,0.00,,,0.00,186.000000,,2013-03-04 20:02:00,
2013-03-04 15:32:00,24.0,16.0,-100.00,WNW,288,6.0,10.0,71,0.00,,,0.00,172.000000,,2013-03-04 20:32:00,
2013-03-04 15:42:00,24.0,16.0,-100.00,WNW,288,6.0,10.0,71,0.00,,,0.00,172.000000,,2013-03-04 20:42:00,
2013-03-04 15:53:00,24.0,16.0,-100.00,WNW,288,6.0,10.0,71,0.00,,,0.00,172.000000,,2013-03-04 20:53:00,
2013-03-04 16:02:00,24.0,16.0,-100.00,WNW,288,6.0,10.0,71,0.00,,,0.00,172.000000,,2013-03-04 21:02:00,
2013-03-04 16:32:00,24.0,16.0,-100.00,WNW,299,6.0,11.0,70,0.00,,,0.00,156.000000,,2013-03-04 21:32:00,
2013-03-04 16:43:00,24.0,16.0,-100.00,WNW,299,6.0,11.0,70,0.00,,,0.00,156.000000,,2013-03-04 21:43:00,
2013-03-04 16:53:00,24.0,16.0,-100.00,WNW,299,6.0,11.0,70,0.00,,,0.00,156.000000,,2013-03-04 21:53:00,
2013-03-04 17:02:00,24.0,16.0,-100.00,WNW,299,6.0,11.0,70,0.00,,,0.00,156.000000,,2013-03-04 22:02:00,
2013-03-04 17:32:00,25.0,16.0,-100.00,WNW,298,5.0,10.0,68,0.00,,,0.00,178.000000,,2013-03-04 22:32:00,
2013-03-04 17:43:00,25.0,16.0,-100.00,WNW,298,5.0,10.0,68,0.00,,,0.00,178.000000,,2013-03-04 22:43:00,
2013-03-04 17:52:00,25.0,16.0,-100.00,WNW,298,5.0,10.0,68,0.00,,,0.00,178.000000,,2013-03-04 22:52:00,
2013-03-04 18:02:00,25.0,16.0,-100.00,WNW,298,5.0,10.0,68,0.00,,,0.00,178.000000,,2013-03-04 23:02:00,
2013-03-04 18:32:00,22.0,14.0,-100.00,NW,306,4.0,8.0,71,0.00,,,0.00,92.000000,,2013-03-04 23:32:00,
2013-03-04 18:42:00,22.0,14.0,-100.00,NW,306,4.0,8.0,71,0.00,,,0.00,92.000000,,2013-03-04 23:42:00,
2013-03-04 18:52:00,22.0,14.0,-100.00,NW,306,4.0,8.0,71,0.00,,,0.00,92.000000,,2013-03-04 23:52:00,
2013-03-04 19:02:00,22.0,14.0,-100.00,NW,306,4.0,8.0,71,0.00,,,0.00,92.000000,,2013-03-05 00:02:00,
2013-03-04 19:32:00,17.0,12.0,-100.00,NW,312,2.0,3.0,81,0.00,,,0.00,1.000000,,2013-03-05 00:32:00,
2013-03-04 19:42:00,17.0,12.0,-100.00,NW,312,2.0,3.0,81,0.00,,,0.00,1.000000,,2013-03-05 00:42:00,
2013-03-04 19:52:00,17.0,12.0,-100.00,NW,312,2.0,3.0,81,0.00,,,0.00,1.000000,,2013-03-05 00:52:00,
2013-03-04 20:02:00,17.0,12.0,-100.00,NW,312,2.0,3.0,81,0.00,,,0.00,1.000000,,2013-03-05 01:02:00,
2013-03-04 21:32:00,13.0,10.0,-100.00,NW,322,2.0,4.0,86,-99.99,,,0.00,0.000000,,2013-03-05 02:32:00,
2013-03-04 21:42:00,13.0,10.0,-100.00,NW,322,2.0,4.0,86,-99.99,,,0.00,0.000000,,2013-03-05 02:42:00,
2013-03-04 21:53:00,13.0,10.0,-100.00,NW,322,2.0,4.0,86,-99.99,,,0.00,0.000000,,2013-03-05 02:53:00,
2013-03-04 22:02:00,13.0,10.0,-100.00,NW,322,2.0,4.0,86,-99.99,,,0.00,0.000000,,2013-03-05 03:02:00,
2013-03-04 22:32:00,17.0,13.0,-100.00,NW,311,4.0,8.0,85,0.00,,,0.00,0.000000,,2013-03-05 03:32:00,
2013-03-04 22:42:00,17.0,13.0,-100.00,NW,311,4.0,8.0,85,0.00,,,0.00,0.000000,,2013-03-05 03:42:00,
2013-03-04 22:52:00,17.0,13.0,-100.00,NW,311,4.0,8.0,85,0.00,,,0.00,0.000000,,2013-03-05 03:52:00,
2013-03-04 23:02:00,17.0,13.0,-100.00,NW,311,4.0,8.0,85,0.00,,,0.00,0.000000,,2013-03-05 04:02:00,
2013-03-04 23:32:00,17.0,13.0,-100.00,West,281,2.0,4.0,85,0.00,,,0.00,0.000000,,2013-03-05 04:32:00,
2013-03-04 23:42:00,17.0,13.0,-100.00,West,281,2.0,4.0,85,0.00,,,0.00,0.000000,,2013-03-05 04:42:00,
2013-03-04 23:52:00,17.0,13.0,-100.00,West,281,2.0,4.0,85,0.00,,,0.00,0.000000,,2013-03-05 04:52:00,